sensor_id;sensor_type;location;lat;lon;timestamp;temperature;humidity
74513;DHT22;62992;52.052;8.550;2022-11-11T00:01:59;9.30;99.90
74513;DHT22;62992;52.052;8.550;2022-11-11T00:04:43;9.30;99.90
74513;DHT22;62992;52.052;8.550;2022-11-11T00:07:27;9.20;99.90
74513;DHT22;62992;52.052;8.550;2022-11-11T00:10:11;9.20;99.90
74513;DHT22;62992;52.052;8.550;2022-11-11T00:12:59;9.20;99.90
74513;DHT22;62992;52.052;8.550;2022-11-11T00:15:44;9.20;99.90
74513;DHT22;62992;52.052;8.550;2022-11-11T00:18:28;9.20;99.90
74513;DHT22;62992;52.052;8.550;2022-11-11T00:21:31;9.20;99.90
74513;DHT22;62992;52.052;8.550;2022-11-11T00:24:35;9.20;99.90
74513;DHT22;62992;52.052;8.550;2022-11-11T00:27:38;9.20;99.90
74513;DHT22;62992;52.052;8.550;2022-11-11T00:30:22;9.10;99.90
74513;DHT22;62992;52.052;8.550;2022-11-11T00:33:06;9.20;99.90
74513;DHT22;62992;52.052;8.550;2022-11-11T00:35:52;9.00;99.90
74513;DHT22;62992;52.052;8.550;2022-11-11T00:38:37;9.00;99.90
74513;DHT22;62992;52.052;8.550;2022-11-11T00:41:31;9.00;99.90
74513;DHT22;62992;52.052;8.550;2022-11-11T00:44:15;9.10;99.90
74513;DHT22;62992;52.052;8.550;2022-11-11T00:46:59;9.00;99.90
74513;DHT22;62992;52.052;8.550;2022-11-11T00:50:04;9.10;99.90
74513;DHT22;62992;52.052;8.550;2022-11-11T00:53:11;9.10;99.90
74513;DHT22;62992;52.052;8.550;2022-11-11T00:55:56;9.10;99.90
74513;DHT22;62992;52.052;8.550;2022-11-11T00:58:40;9.10;99.90
74513;DHT22;62992;52.052;8.550;2022-11-11T01:01:24;9.10;99.90
74513;DHT22;62992;52.052;8.550;2022-11-11T01:04:08;9.20;99.90
74513;DHT22;62992;52.052;8.550;2022-11-11T01:06:52;9.10;99.90
74513;DHT22;62992;52.052;8.550;2022-11-11T01:09:36;9.10;99.90
74513;DHT22;62992;52.052;8.550;2022-11-11T01:12:20;9.10;99.90
74513;DHT22;62992;52.052;8.550;2022-11-11T01:15:05;9.20;99.90
74513;DHT22;62992;52.052;8.550;2022-11-11T01:17:49;9.10;99.90
74513;DHT22;62992;52.052;8.550;2022-11-11T01:20:34;9.10;99.90
74513;DHT22;62992;52.052;8.550;2022-11-11T01:23:20;9.10;99.90
74513;DHT22;62992;52.052;8.550;2022-11-11T01:29:00;9.10;99.90
74513;DHT22;62992;52.052;8.550;2022-11-11T01:31:44;9.20;99.90
74513;DHT22;62992;52.052;8.550;2022-11-11T01:34:28;9.20;99.90
74513;DHT22;62992;52.052;8.550;2022-11-11T01:37:13;9.10;99.90
74513;DHT22;62992;52.052;8.550;2022-11-11T01:39:56;9.10;99.90
74513;DHT22;62992;52.052;8.550;2022-11-11T01:43:14;9.10;99.90
74513;DHT22;62992;52.052;8.550;2022-11-11T01:46:00;9.10;99.90
74513;DHT22;62992;52.052;8.550;2022-11-11T01:48:53;9.10;99.90
74513;DHT22;62992;52.052;8.550;2022-11-11T01:52:10;9.10;99.90
74513;DHT22;62992;52.052;8.550;2022-11-11T01:55:09;9.10;99.90
74513;DHT22;62992;52.052;8.550;2022-11-11T01:58:06;9.00;99.90
74513;DHT22;62992;52.052;8.550;2022-11-11T02:00:52;9.00;99.90
74513;DHT22;62992;52.052;8.550;2022-11-11T02:03:39;9.00;99.90
74513;DHT22;62992;52.052;8.550;2022-11-11T02:06:25;8.90;99.90
74513;DHT22;62992;52.052;8.550;2022-11-11T02:09:11;8.90;99.90
74513;DHT22;62992;52.052;8.550;2022-11-11T02:11:58;8.80;99.90
74513;DHT22;62992;52.052;8.550;2022-11-11T02:15:03;8.80;99.90
74513;DHT22;62992;52.052;8.550;2022-11-11T02:17:49;8.80;99.90
74513;DHT22;62992;52.052;8.550;2022-11-11T02:20:39;8.80;99.90
74513;DHT22;62992;52.052;8.550;2022-11-11T02:26:42;8.80;99.90
74513;DHT22;62992;52.052;8.550;2022-11-11T02:29:28;8.80;99.90
74513;DHT22;62992;52.052;8.550;2022-11-11T02:32:13;8.70;99.90
74513;DHT22;62992;52.052;8.550;2022-11-11T02:34:58;8.70;99.90
74513;DHT22;62992;52.052;8.550;2022-11-11T02:37:45;8.70;99.90
74513;DHT22;62992;52.052;8.550;2022-11-11T02:40:36;8.70;99.90
74513;DHT22;62992;52.052;8.550;2022-11-11T02:43:21;8.70;99.90
74513;DHT22;62992;52.052;8.550;2022-11-11T02:46:06;8.70;99.90
74513;DHT22;62992;52.052;8.550;2022-11-11T02:48:50;8.80;99.90
74513;DHT22;62992;52.052;8.550;2022-11-11T02:51:34;8.80;99.90
74513;DHT22;62992;52.052;8.550;2022-11-11T02:54:18;8.80;99.90
74513;DHT22;62992;52.052;8.550;2022-11-11T02:57:02;8.90;99.90
74513;DHT22;62992;52.052;8.550;2022-11-11T02:59:52;8.90;99.90
74513;DHT22;62992;52.052;8.550;2022-11-11T03:02:37;8.90;99.90
74513;DHT22;62992;52.052;8.550;2022-11-11T03:05:22;8.80;99.90
74513;DHT22;62992;52.052;8.550;2022-11-11T03:08:07;8.80;99.90
74513;DHT22;62992;52.052;8.550;2022-11-11T03:10:51;8.80;99.90
74513;DHT22;62992;52.052;8.550;2022-11-11T03:13:35;8.90;99.90
74513;DHT22;62992;52.052;8.550;2022-11-11T03:16:19;8.80;99.90
74513;DHT22;62992;52.052;8.550;2022-11-11T03:19:22;8.80;99.90
74513;DHT22;62992;52.052;8.550;2022-11-11T03:22:06;8.80;99.90
74513;DHT22;62992;52.052;8.550;2022-11-11T03:24:50;8.80;99.90
74513;DHT22;62992;52.052;8.550;2022-11-11T03:27:53;8.80;99.90
74513;DHT22;62992;52.052;8.550;2022-11-11T03:30:39;8.70;99.90
74513;DHT22;62992;52.052;8.550;2022-11-11T03:33:24;8.70;99.90
74513;DHT22;62992;52.052;8.550;2022-11-11T03:36:08;8.70;99.90
74513;DHT22;62992;52.052;8.550;2022-11-11T03:38:52;8.80;99.90
74513;DHT22;62992;52.052;8.550;2022-11-11T03:41:36;8.80;99.90
74513;DHT22;62992;52.052;8.550;2022-11-11T03:44:20;8.70;99.90
74513;DHT22;62992;52.052;8.550;2022-11-11T03:47:04;8.70;99.90
74513;DHT22;62992;52.052;8.550;2022-11-11T03:49:48;8.80;99.90
74513;DHT22;62992;52.052;8.550;2022-11-11T03:52:32;8.80;99.90
74513;DHT22;62992;52.052;8.550;2022-11-11T03:55:16;8.70;99.90
74513;DHT22;62992;52.052;8.550;2022-11-11T03:58:00;8.70;99.90
74513;DHT22;62992;52.052;8.550;2022-11-11T04:00:44;8.70;99.90
74513;DHT22;62992;52.052;8.550;2022-11-11T04:03:29;8.70;99.90
74513;DHT22;62992;52.052;8.550;2022-11-11T04:06:32;8.70;99.90
74513;DHT22;62992;52.052;8.550;2022-11-11T04:09:35;8.80;99.90
74513;DHT22;62992;52.052;8.550;2022-11-11T04:12:39;8.80;99.90
74513;DHT22;62992;52.052;8.550;2022-11-11T04:15:43;8.80;99.90
74513;DHT22;62992;52.052;8.550;2022-11-11T04:18:46;8.80;99.90
74513;DHT22;62992;52.052;8.550;2022-11-11T04:21:49;8.80;99.90
74513;DHT22;62992;52.052;8.550;2022-11-11T04:24:33;8.90;99.90
74513;DHT22;62992;52.052;8.550;2022-11-11T04:27:36;8.80;99.90
74513;DHT22;62992;52.052;8.550;2022-11-11T04:30:20;8.80;99.90
74513;DHT22;62992;52.052;8.550;2022-11-11T04:33:04;8.80;99.90
74513;DHT22;62992;52.052;8.550;2022-11-11T04:35:49;8.80;99.90
74513;DHT22;62992;52.052;8.550;2022-11-11T04:38:34;8.80;99.90
74513;DHT22;62992;52.052;8.550;2022-11-11T04:41:37;8.80;99.90
74513;DHT22;62992;52.052;8.550;2022-11-11T04:44:21;8.90;99.90
74513;DHT22;62992;52.052;8.550;2022-11-11T04:47:24;8.90;99.90
74513;DHT22;62992;52.052;8.550;2022-11-11T04:50:08;9.00;99.90
74513;DHT22;62992;52.052;8.550;2022-11-11T04:52:52;9.00;99.90
74513;DHT22;62992;52.052;8.550;2022-11-11T04:55:40;9.10;99.90
74513;DHT22;62992;52.052;8.550;2022-11-11T04:58:44;9.10;99.90
74513;DHT22;62992;52.052;8.550;2022-11-11T05:01:29;9.20;99.90
74513;DHT22;62992;52.052;8.550;2022-11-11T05:04:32;9.20;99.90
74513;DHT22;62992;52.052;8.550;2022-11-11T05:07:16;9.20;99.90
74513;DHT22;62992;52.052;8.550;2022-11-11T05:10:19;9.10;99.90
74513;DHT22;62992;52.052;8.550;2022-11-11T05:13:04;9.10;99.90
74513;DHT22;62992;52.052;8.550;2022-11-11T05:16:19;9.20;99.90
74513;DHT22;62992;52.052;8.550;2022-11-11T05:19:23;9.10;99.90
74513;DHT22;62992;52.052;8.550;2022-11-11T05:25:12;9.10;99.90
74513;DHT22;62992;52.052;8.550;2022-11-11T05:28:08;9.20;99.90
74513;DHT22;62992;52.052;8.550;2022-11-11T05:30:52;9.20;99.90
74513;DHT22;62992;52.052;8.550;2022-11-11T05:33:36;9.20;99.90
74513;DHT22;62992;52.052;8.550;2022-11-11T05:36:21;9.20;99.90
74513;DHT22;62992;52.052;8.550;2022-11-11T05:39:05;9.20;99.90
74513;DHT22;62992;52.052;8.550;2022-11-11T05:41:49;9.30;99.90
74513;DHT22;62992;52.052;8.550;2022-11-11T05:44:33;9.30;99.90
74513;DHT22;62992;52.052;8.550;2022-11-11T05:47:18;9.30;99.90
74513;DHT22;62992;52.052;8.550;2022-11-11T05:50:02;9.30;99.90
74513;DHT22;62992;52.052;8.550;2022-11-11T05:52:49;9.20;99.90
74513;DHT22;62992;52.052;8.550;2022-11-11T05:55:34;9.20;99.90
74513;DHT22;62992;52.052;8.550;2022-11-11T05:58:18;9.30;99.90
74513;DHT22;62992;52.052;8.550;2022-11-11T06:01:03;9.20;99.90
74513;DHT22;62992;52.052;8.550;2022-11-11T06:03:47;9.20;99.90
74513;DHT22;62992;52.052;8.550;2022-11-11T06:06:32;9.30;99.90
74513;DHT22;62992;52.052;8.550;2022-11-11T06:09:16;9.30;99.90
74513;DHT22;62992;52.052;8.550;2022-11-11T06:12:00;9.20;99.90
74513;DHT22;62992;52.052;8.550;2022-11-11T06:14:44;9.20;99.90
74513;DHT22;62992;52.052;8.550;2022-11-11T06:17:28;9.20;99.90
74513;DHT22;62992;52.052;8.550;2022-11-11T06:20:13;9.20;99.90
74513;DHT22;62992;52.052;8.550;2022-11-11T06:22:57;9.20;99.90
74513;DHT22;62992;52.052;8.550;2022-11-11T06:25:41;9.20;99.90
74513;DHT22;62992;52.052;8.550;2022-11-11T06:28:48;9.20;99.90
74513;DHT22;62992;52.052;8.550;2022-11-11T06:31:32;9.10;99.90
74513;DHT22;62992;52.052;8.550;2022-11-11T06:34:16;9.00;99.90
74513;DHT22;62992;52.052;8.550;2022-11-11T06:37:00;9.10;99.90
74513;DHT22;62992;52.052;8.550;2022-11-11T06:39:44;9.00;99.90
74513;DHT22;62992;52.052;8.550;2022-11-11T06:42:28;9.10;99.90
74513;DHT22;62992;52.052;8.550;2022-11-11T06:45:13;9.10;99.90
74513;DHT22;62992;52.052;8.550;2022-11-11T06:47:56;9.10;99.90
74513;DHT22;62992;52.052;8.550;2022-11-11T06:50:40;9.10;99.90
74513;DHT22;62992;52.052;8.550;2022-11-11T06:53:25;9.10;99.90
74513;DHT22;62992;52.052;8.550;2022-11-11T06:56:12;9.10;99.90
74513;DHT22;62992;52.052;8.550;2022-11-11T06:58:56;9.20;99.90
74513;DHT22;62992;52.052;8.550;2022-11-11T07:01:40;9.10;99.90
74513;DHT22;62992;52.052;8.550;2022-11-11T07:04:24;9.20;99.90
74513;DHT22;62992;52.052;8.550;2022-11-11T07:07:08;9.20;99.90
74513;DHT22;62992;52.052;8.550;2022-11-11T07:09:52;9.20;99.90
74513;DHT22;62992;52.052;8.550;2022-11-11T07:12:39;9.30;99.90
74513;DHT22;62992;52.052;8.550;2022-11-11T07:15:24;9.30;99.90
74513;DHT22;62992;52.052;8.550;2022-11-11T07:18:08;9.30;99.90
74513;DHT22;62992;52.052;8.550;2022-11-11T07:20:53;9.40;99.90
74513;DHT22;62992;52.052;8.550;2022-11-11T07:23:37;9.50;99.90
74513;DHT22;62992;52.052;8.550;2022-11-11T07:26:21;9.40;99.90
74513;DHT22;62992;52.052;8.550;2022-11-11T07:29:05;9.50;99.90
74513;DHT22;62992;52.052;8.550;2022-11-11T07:31:49;9.60;99.90
74513;DHT22;62992;52.052;8.550;2022-11-11T07:34:34;9.70;99.90
74513;DHT22;62992;52.052;8.550;2022-11-11T07:37:18;9.80;99.90
74513;DHT22;62992;52.052;8.550;2022-11-11T07:40:03;9.80;99.90
74513;DHT22;62992;52.052;8.550;2022-11-11T07:42:47;9.90;99.90
74513;DHT22;62992;52.052;8.550;2022-11-11T07:45:31;9.90;99.90
74513;DHT22;62992;52.052;8.550;2022-11-11T07:48:15;10.00;99.90
74513;DHT22;62992;52.052;8.550;2022-11-11T07:50:58;10.10;99.90
74513;DHT22;62992;52.052;8.550;2022-11-11T07:53:43;10.00;99.90
74513;DHT22;62992;52.052;8.550;2022-11-11T07:56:27;10.10;99.90
74513;DHT22;62992;52.052;8.550;2022-11-11T07:59:11;10.20;99.90
74513;DHT22;62992;52.052;8.550;2022-11-11T08:01:55;10.20;99.90
74513;DHT22;62992;52.052;8.550;2022-11-11T08:04:39;10.20;99.90
74513;DHT22;62992;52.052;8.550;2022-11-11T08:07:23;10.30;99.90
74513;DHT22;62992;52.052;8.550;2022-11-11T08:10:08;10.30;99.90
74513;DHT22;62992;52.052;8.550;2022-11-11T08:12:53;10.30;99.90
74513;DHT22;62992;52.052;8.550;2022-11-11T08:15:56;10.40;99.90
74513;DHT22;62992;52.052;8.550;2022-11-11T08:18:41;10.50;99.90
74513;DHT22;62992;52.052;8.550;2022-11-11T08:21:25;10.50;99.90
74513;DHT22;62992;52.052;8.550;2022-11-11T08:24:10;10.50;99.90
74513;DHT22;62992;52.052;8.550;2022-11-11T08:26:54;10.50;99.90
74513;DHT22;62992;52.052;8.550;2022-11-11T08:29:38;10.50;99.90
74513;DHT22;62992;52.052;8.550;2022-11-11T08:32:22;10.50;99.90
74513;DHT22;62992;52.052;8.550;2022-11-11T08:35:07;10.60;99.90
74513;DHT22;62992;52.052;8.550;2022-11-11T08:37:51;10.70;99.90
74513;DHT22;62992;52.052;8.550;2022-11-11T08:40:35;10.60;99.90
74513;DHT22;62992;52.052;8.550;2022-11-11T08:43:20;10.60;99.90
74513;DHT22;62992;52.052;8.550;2022-11-11T08:46:05;10.70;99.90
74513;DHT22;62992;52.052;8.550;2022-11-11T08:48:49;10.70;99.90
74513;DHT22;62992;52.052;8.550;2022-11-11T08:51:33;10.80;99.90
74513;DHT22;62992;52.052;8.550;2022-11-11T08:54:17;10.80;99.90
74513;DHT22;62992;52.052;8.550;2022-11-11T08:57:01;10.90;99.90
74513;DHT22;62992;52.052;8.550;2022-11-11T08:59:45;10.80;99.90
74513;DHT22;62992;52.052;8.550;2022-11-11T09:02:29;10.80;99.90
74513;DHT22;62992;52.052;8.550;2022-11-11T09:05:13;11.00;99.90
74513;DHT22;62992;52.052;8.550;2022-11-11T09:08:01;11.00;99.90
74513;DHT22;62992;52.052;8.550;2022-11-11T09:10:45;11.20;99.90
74513;DHT22;62992;52.052;8.550;2022-11-11T09:13:29;11.20;99.90
74513;DHT22;62992;52.052;8.550;2022-11-11T09:16:13;11.30;99.90
74513;DHT22;62992;52.052;8.550;2022-11-11T09:18:57;11.30;99.90
74513;DHT22;62992;52.052;8.550;2022-11-11T09:21:41;11.30;99.90
74513;DHT22;62992;52.052;8.550;2022-11-11T09:24:25;11.30;99.90
74513;DHT22;62992;52.052;8.550;2022-11-11T09:27:10;11.20;99.90
74513;DHT22;62992;52.052;8.550;2022-11-11T09:29:54;11.30;99.90
74513;DHT22;62992;52.052;8.550;2022-11-11T09:32:38;11.40;99.90
74513;DHT22;62992;52.052;8.550;2022-11-11T09:35:22;11.70;99.90
74513;DHT22;62992;52.052;8.550;2022-11-11T09:38:07;11.70;99.90
74513;DHT22;62992;52.052;8.550;2022-11-11T09:44:01;12.10;99.90
74513;DHT22;62992;52.052;8.550;2022-11-11T09:55:43;12.80;99.90
74513;DHT22;62992;52.052;8.550;2022-11-11T10:01:31;12.90;99.90
74513;DHT22;62992;52.052;8.550;2022-11-11T10:07:23;13.00;99.90
74513;DHT22;62992;52.052;8.550;2022-11-11T10:10:22;13.20;99.90
74513;DHT22;62992;52.052;8.550;2022-11-11T10:13:28;13.60;99.90
74513;DHT22;62992;52.052;8.550;2022-11-11T10:19:47;14.10;99.90
74513;DHT22;62992;52.052;8.550;2022-11-11T10:22:35;14.40;99.90
74513;DHT22;62992;52.052;8.550;2022-11-11T10:25:23;14.60;99.90
74513;DHT22;62992;52.052;8.550;2022-11-11T10:28:14;14.60;99.90
74513;DHT22;62992;52.052;8.550;2022-11-11T10:31:02;14.80;99.90
74513;DHT22;62992;52.052;8.550;2022-11-11T10:33:57;15.00;99.90
74513;DHT22;62992;52.052;8.550;2022-11-11T10:36:48;14.90;99.90
74513;DHT22;62992;52.052;8.550;2022-11-11T10:42:39;15.00;99.90
74513;DHT22;62992;52.052;8.550;2022-11-11T10:45:30;14.50;99.90
74513;DHT22;62992;52.052;8.550;2022-11-11T10:48:42;14.30;99.90
74513;DHT22;62992;52.052;8.550;2022-11-11T10:51:26;14.10;99.90
74513;DHT22;62992;52.052;8.550;2022-11-11T10:54:17;13.80;99.90
74513;DHT22;62992;52.052;8.550;2022-11-11T11:00:09;13.70;99.90
74513;DHT22;62992;52.052;8.550;2022-11-11T11:05:51;13.80;99.90
74513;DHT22;62992;52.052;8.550;2022-11-11T11:08:42;13.60;99.90
74513;DHT22;62992;52.052;8.550;2022-11-11T11:11:40;13.70;99.90
74513;DHT22;62992;52.052;8.550;2022-11-11T11:14:31;13.80;99.90
74513;DHT22;62992;52.052;8.550;2022-11-11T11:17:35;13.70;99.90
74513;DHT22;62992;52.052;8.550;2022-11-11T11:20:20;13.70;99.90
74513;DHT22;62992;52.052;8.550;2022-11-11T11:23:05;13.80;99.90
74513;DHT22;62992;52.052;8.550;2022-11-11T11:25:53;14.00;99.90
74513;DHT22;62992;52.052;8.550;2022-11-11T11:28:58;14.10;99.90
74513;DHT22;62992;52.052;8.550;2022-11-11T11:31:42;14.30;99.90
74513;DHT22;62992;52.052;8.550;2022-11-11T11:37:28;14.30;99.90
74513;DHT22;62992;52.052;8.550;2022-11-11T11:40:12;14.20;99.90
74513;DHT22;62992;52.052;8.550;2022-11-11T11:42:58;14.10;99.90
74513;DHT22;62992;52.052;8.550;2022-11-11T11:45:42;14.10;99.90
74513;DHT22;62992;52.052;8.550;2022-11-11T11:51:51;14.20;99.90
74513;DHT22;62992;52.052;8.550;2022-11-11T11:54:51;14.20;99.90
74513;DHT22;62992;52.052;8.550;2022-11-11T12:00:31;14.40;99.90
74513;DHT22;62992;52.052;8.550;2022-11-11T12:14:57;14.50;99.90
74513;DHT22;62992;52.052;8.550;2022-11-11T12:29:53;14.50;99.90
74513;DHT22;62992;52.052;8.550;2022-11-11T12:33:13;14.60;99.90
74513;DHT22;62992;52.052;8.550;2022-11-11T12:45:12;14.70;99.90
74513;DHT22;62992;52.052;8.550;2022-11-11T12:51:19;14.80;99.90
74513;DHT22;62992;52.052;8.550;2022-11-11T12:54:31;14.80;99.90
74513;DHT22;62992;52.052;8.550;2022-11-11T13:07:18;14.80;99.90
74513;DHT22;62992;52.052;8.550;2022-11-11T13:10:35;14.90;99.90
74513;DHT22;62992;52.052;8.550;2022-11-11T13:16:21;14.80;99.90
74513;DHT22;62992;52.052;8.550;2022-11-11T13:19:16;14.80;99.90
74513;DHT22;62992;52.052;8.550;2022-11-11T13:22:11;14.80;99.90
74513;DHT22;62992;52.052;8.550;2022-11-11T13:25:01;14.80;99.90
74513;DHT22;62992;52.052;8.550;2022-11-11T13:28:06;14.80;99.90
74513;DHT22;62992;52.052;8.550;2022-11-11T13:33:57;14.70;99.90
74513;DHT22;62992;52.052;8.550;2022-11-11T13:36:51;14.70;99.90
74513;DHT22;62992;52.052;8.550;2022-11-11T13:39:46;14.70;99.90
74513;DHT22;62992;52.052;8.550;2022-11-11T13:42:40;14.70;99.90
74513;DHT22;62992;52.052;8.550;2022-11-11T13:45:39;14.70;99.90
74513;DHT22;62992;52.052;8.550;2022-11-11T13:51:38;14.70;99.90
74513;DHT22;62992;52.052;8.550;2022-11-11T14:00:06;14.40;99.90
74513;DHT22;62992;52.052;8.550;2022-11-11T14:08:59;14.40;99.90
74513;DHT22;62992;52.052;8.550;2022-11-11T14:11:43;14.30;99.90
74513;DHT22;62992;52.052;8.550;2022-11-11T14:17:18;14.40;99.90
74513;DHT22;62992;52.052;8.550;2022-11-11T14:20:37;14.40;99.90
74513;DHT22;62992;52.052;8.550;2022-11-11T14:23:41;14.30;99.90
74513;DHT22;62992;52.052;8.550;2022-11-11T14:26:27;14.30;99.90
74513;DHT22;62992;52.052;8.550;2022-11-11T14:29:18;14.30;99.90
74513;DHT22;62992;52.052;8.550;2022-11-11T14:38:28;14.10;99.90
74513;DHT22;62992;52.052;8.550;2022-11-11T14:49:58;14.10;99.90
74513;DHT22;62992;52.052;8.550;2022-11-11T14:52:43;14.00;99.90
74513;DHT22;62992;52.052;8.550;2022-11-11T14:55:29;13.90;99.90
74513;DHT22;62992;52.052;8.550;2022-11-11T14:58:16;14.00;99.90
74513;DHT22;62992;52.052;8.550;2022-11-11T15:01:16;13.90;99.90
74513;DHT22;62992;52.052;8.550;2022-11-11T15:04:04;13.80;99.90
74513;DHT22;62992;52.052;8.550;2022-11-11T15:06:59;13.70;99.90
74513;DHT22;62992;52.052;8.550;2022-11-11T15:09:47;13.70;99.90
74513;DHT22;62992;52.052;8.550;2022-11-11T15:19:25;13.60;99.90
74513;DHT22;62992;52.052;8.550;2022-11-11T15:38:00;13.20;99.90
74513;DHT22;62992;52.052;8.550;2022-11-11T15:43:32;13.10;99.90
74513;DHT22;62992;52.052;8.550;2022-11-11T15:46:28;12.90;99.90
74513;DHT22;62992;52.052;8.550;2022-11-11T15:49:14;12.80;99.90
74513;DHT22;62992;52.052;8.550;2022-11-11T15:58:15;12.40;99.90
74513;DHT22;62992;52.052;8.550;2022-11-11T16:01:03;12.60;99.90
74513;DHT22;62992;52.052;8.550;2022-11-11T16:03:48;12.60;99.90
74513;DHT22;62992;52.052;8.550;2022-11-11T16:06:35;12.60;99.90
74513;DHT22;62992;52.052;8.550;2022-11-11T16:09:28;12.60;99.90
74513;DHT22;62992;52.052;8.550;2022-11-11T16:12:27;12.40;99.90
74513;DHT22;62992;52.052;8.550;2022-11-11T16:18:26;11.90;99.90
74513;DHT22;62992;52.052;8.550;2022-11-11T16:21:18;11.90;99.90
74513;DHT22;62992;52.052;8.550;2022-11-11T16:24:25;11.60;99.90
74513;DHT22;62992;52.052;8.550;2022-11-11T16:27:15;11.80;99.90
74513;DHT22;62992;52.052;8.550;2022-11-11T16:30:17;11.50;99.90
74513;DHT22;62992;52.052;8.550;2022-11-11T16:33:02;11.50;99.90
74513;DHT22;62992;52.052;8.550;2022-11-11T16:35:46;11.70;99.90
74513;DHT22;62992;52.052;8.550;2022-11-11T16:38:34;11.80;99.90
74513;DHT22;62992;52.052;8.550;2022-11-11T16:41:28;11.90;99.90
74513;DHT22;62992;52.052;8.550;2022-11-11T16:50:25;12.10;99.90
74513;DHT22;62992;52.052;8.550;2022-11-11T16:53:26;12.00;99.90
74513;DHT22;62992;52.052;8.550;2022-11-11T16:56:29;11.80;99.90
74513;DHT22;62992;52.052;8.550;2022-11-11T16:59:25;11.60;99.90
74513;DHT22;62992;52.052;8.550;2022-11-11T17:02:17;11.70;99.90
74513;DHT22;62992;52.052;8.550;2022-11-11T17:05:02;11.90;99.90
74513;DHT22;62992;52.052;8.550;2022-11-11T17:07:46;11.60;99.90
74513;DHT22;62992;52.052;8.550;2022-11-11T17:10:37;11.60;99.90
74513;DHT22;62992;52.052;8.550;2022-11-11T17:13:22;11.30;99.90
74513;DHT22;62992;52.052;8.550;2022-11-11T17:16:06;11.20;99.90
74513;DHT22;62992;52.052;8.550;2022-11-11T17:18:51;11.10;99.90
74513;DHT22;62992;52.052;8.550;2022-11-11T17:21:35;11.00;99.90
74513;DHT22;62992;52.052;8.550;2022-11-11T17:24:19;11.00;99.90
74513;DHT22;62992;52.052;8.550;2022-11-11T17:27:04;10.80;99.90
74513;DHT22;62992;52.052;8.550;2022-11-11T17:29:48;10.70;99.90
74513;DHT22;62992;52.052;8.550;2022-11-11T17:32:32;10.60;99.90
74513;DHT22;62992;52.052;8.550;2022-11-11T17:35:17;10.40;99.90
74513;DHT22;62992;52.052;8.550;2022-11-11T17:38:01;10.30;99.90
74513;DHT22;62992;52.052;8.550;2022-11-11T17:40:46;10.30;99.90
74513;DHT22;62992;52.052;8.550;2022-11-11T17:43:30;10.30;99.90
74513;DHT22;62992;52.052;8.550;2022-11-11T17:46:14;10.30;99.90
74513;DHT22;62992;52.052;8.550;2022-11-11T17:48:58;10.20;99.90
74513;DHT22;62992;52.052;8.550;2022-11-11T17:51:42;10.30;99.90
74513;DHT22;62992;52.052;8.550;2022-11-11T17:54:27;10.60;99.90
74513;DHT22;62992;52.052;8.550;2022-11-11T17:57:11;10.70;99.90
74513;DHT22;62992;52.052;8.550;2022-11-11T17:59:55;10.90;99.90
74513;DHT22;62992;52.052;8.550;2022-11-11T18:02:39;11.00;99.90
74513;DHT22;62992;52.052;8.550;2022-11-11T18:05:23;11.00;99.90
74513;DHT22;62992;52.052;8.550;2022-11-11T18:08:07;11.00;99.90
74513;DHT22;62992;52.052;8.550;2022-11-11T18:10:51;10.90;99.90
74513;DHT22;62992;52.052;8.550;2022-11-11T18:13:35;10.80;99.90
74513;DHT22;62992;52.052;8.550;2022-11-11T18:16:20;10.30;99.90
74513;DHT22;62992;52.052;8.550;2022-11-11T18:19:05;10.30;99.90
74513;DHT22;62992;52.052;8.550;2022-11-11T18:21:49;10.10;99.90
74513;DHT22;62992;52.052;8.550;2022-11-11T18:24:33;10.00;99.90
74513;DHT22;62992;52.052;8.550;2022-11-11T18:27:17;9.80;99.90
74513;DHT22;62992;52.052;8.550;2022-11-11T18:30:01;9.70;99.90
74513;DHT22;62992;52.052;8.550;2022-11-11T18:32:46;9.60;99.90
74513;DHT22;62992;52.052;8.550;2022-11-11T18:35:30;9.50;99.90
74513;DHT22;62992;52.052;8.550;2022-11-11T18:38:14;9.60;99.90
74513;DHT22;62992;52.052;8.550;2022-11-11T18:41:09;9.90;99.90
74513;DHT22;62992;52.052;8.550;2022-11-11T18:43:54;10.00;99.90
74513;DHT22;62992;52.052;8.550;2022-11-11T18:46:38;10.10;99.90
74513;DHT22;62992;52.052;8.550;2022-11-11T18:49:22;10.00;99.90
74513;DHT22;62992;52.052;8.550;2022-11-11T18:52:06;9.90;99.90
74513;DHT22;62992;52.052;8.550;2022-11-11T18:54:50;9.70;99.90
74513;DHT22;62992;52.052;8.550;2022-11-11T18:57:34;9.50;99.90
74513;DHT22;62992;52.052;8.550;2022-11-11T19:00:18;9.40;99.90
74513;DHT22;62992;52.052;8.550;2022-11-11T19:03:04;9.40;99.90
74513;DHT22;62992;52.052;8.550;2022-11-11T19:05:48;9.30;99.90
74513;DHT22;62992;52.052;8.550;2022-11-11T19:08:33;9.30;99.90
74513;DHT22;62992;52.052;8.550;2022-11-11T19:11:18;9.20;99.90
74513;DHT22;62992;52.052;8.550;2022-11-11T19:14:04;9.10;99.90
74513;DHT22;62992;52.052;8.550;2022-11-11T19:16:48;9.00;99.90
74513;DHT22;62992;52.052;8.550;2022-11-11T19:19:32;9.00;99.90
74513;DHT22;62992;52.052;8.550;2022-11-11T19:22:16;8.90;99.90
74513;DHT22;62992;52.052;8.550;2022-11-11T19:25:00;8.90;99.90
74513;DHT22;62992;52.052;8.550;2022-11-11T19:27:52;8.90;99.90
74513;DHT22;62992;52.052;8.550;2022-11-11T19:30:36;8.80;99.90
74513;DHT22;62992;52.052;8.550;2022-11-11T19:33:20;8.70;99.90
74513;DHT22;62992;52.052;8.550;2022-11-11T19:36:06;8.60;99.90
74513;DHT22;62992;52.052;8.550;2022-11-11T19:38:51;8.60;99.90
74513;DHT22;62992;52.052;8.550;2022-11-11T19:41:35;8.60;99.90
74513;DHT22;62992;52.052;8.550;2022-11-11T19:44:19;8.50;99.90
74513;DHT22;62992;52.052;8.550;2022-11-11T19:47:04;8.40;99.90
74513;DHT22;62992;52.052;8.550;2022-11-11T19:49:48;8.40;99.90
74513;DHT22;62992;52.052;8.550;2022-11-11T19:52:32;8.30;99.90
74513;DHT22;62992;52.052;8.550;2022-11-11T19:55:17;8.30;99.90
74513;DHT22;62992;52.052;8.550;2022-11-11T19:58:01;8.30;99.90
74513;DHT22;62992;52.052;8.550;2022-11-11T20:00:45;8.20;99.90
74513;DHT22;62992;52.052;8.550;2022-11-11T20:03:30;8.10;99.90
74513;DHT22;62992;52.052;8.550;2022-11-11T20:09:07;8.00;99.90
74513;DHT22;62992;52.052;8.550;2022-11-11T20:11:51;7.90;99.90
74513;DHT22;62992;52.052;8.550;2022-11-11T20:14:35;7.90;99.90
74513;DHT22;62992;52.052;8.550;2022-11-11T20:17:19;7.90;99.90
74513;DHT22;62992;52.052;8.550;2022-11-11T20:20:03;7.90;99.90
74513;DHT22;62992;52.052;8.550;2022-11-11T20:22:47;7.80;99.90
74513;DHT22;62992;52.052;8.550;2022-11-11T20:25:35;7.70;99.90
74513;DHT22;62992;52.052;8.550;2022-11-11T20:28:20;7.70;99.90
74513;DHT22;62992;52.052;8.550;2022-11-11T20:31:06;7.70;99.90
74513;DHT22;62992;52.052;8.550;2022-11-11T20:33:50;7.70;99.90
74513;DHT22;62992;52.052;8.550;2022-11-11T20:36:34;7.60;99.90
74513;DHT22;62992;52.052;8.550;2022-11-11T20:39:18;7.60;99.90
74513;DHT22;62992;52.052;8.550;2022-11-11T20:42:02;7.60;99.90
74513;DHT22;62992;52.052;8.550;2022-11-11T20:44:47;7.60;99.90
74513;DHT22;62992;52.052;8.550;2022-11-11T20:47:31;7.50;99.90
74513;DHT22;62992;52.052;8.550;2022-11-11T20:50:15;7.50;99.90